DAL1061 KLAX-KSJC
Flight info
| Callsign | DAL1061 |
|---|---|
| Flight time | 0h 49m |
| Altitude | 30000 |
| Route | SUMMR2 SCTRR TROXX SILCN6 |
| Aircraft | A319/M-SDE3FGHIRWY/LB1 |
Departure
| Time | 2026-04-24 02:55 |
|---|---|
| Airport | Los Angeles International Airport (KLAX) |
Arrival
| Time | 2026-04-24 03:44 |
|---|---|
| Airport | Norman Y. Mineta San Jose International Airport (KSJC) |
| Time | Latitude | Longitude | Altitude | Speed | Heading |
|---|---|---|---|---|---|
| 2026-04-24 02:28 | 33.94608 | -118.40477 | 95 ft | 0 kts | 96° |
| 2026-04-24 02:45 | 33.94608 | -118.40478 | 95 ft | 1 kts | 96° |
| 2026-04-24 02:46 | 33.94611 | -118.40507 | 94 ft | 4 kts | 96° |
| 2026-04-24 02:46 | 33.94613 | -118.40532 | 94 ft | 4 kts | 57° |
| 2026-04-24 02:46 | 33.94593 | -118.40551 | 94 ft | 4 kts | 23° |
| 2026-04-24 02:46 | 33.94601 | -118.40548 | 95 ft | 4 kts | 16° |
| 2026-04-24 02:47 | 33.94628 | -118.40545 | 97 ft | 4 kts | 360° |
| 2026-04-24 02:47 | 33.94648 | -118.40548 | 95 ft | 0 kts | 353° |
| 2026-04-24 02:49 | 33.94652 | -118.40548 | 97 ft | 1 kts | 353° |
| 2026-04-24 02:49 | 33.94674 | -118.40552 | 95 ft | 4 kts | 353° |
| 2026-04-24 02:49 | 33.94704 | -118.40556 | 96 ft | 4 kts | 353° |
| 2026-04-24 02:50 | 33.94716 | -118.40558 | 97 ft | 1 kts | 353° |
| 2026-04-24 02:50 | 33.94736 | -118.40562 | 97 ft | 5 kts | 345° |
| 2026-04-24 02:50 | 33.94779 | -118.40585 | 96 ft | 9 kts | 336° |
| 2026-04-24 02:50 | 33.94847 | -118.40592 | 99 ft | 11 kts | 29° |
| 2026-04-24 02:51 | 33.94873 | -118.40497 | 100 ft | 14 kts | 83° |
| 2026-04-24 02:51 | 33.94887 | -118.40378 | 100 ft | 15 kts | 82° |
| 2026-04-24 02:51 | 33.94899 | -118.40255 | 100 ft | 15 kts | 83° |
| 2026-04-24 02:51 | 33.94912 | -118.40130 | 100 ft | 15 kts | 83° |
| 2026-04-24 02:52 | 33.94916 | -118.40088 | 100 ft | 16 kts | 84° |
| 2026-04-24 02:52 | 33.94918 | -118.40062 | 99 ft | 16 kts | 84° |
| 2026-04-24 02:52 | 33.94919 | -118.40049 | 101 ft | 6 kts | 84° |
| 2026-04-24 02:52 | 33.94921 | -118.40032 | 99 ft | 7 kts | 84° |
| 2026-04-24 02:53 | 33.94928 | -118.39969 | 100 ft | 10 kts | 76° |
| 2026-04-24 02:53 | 33.94964 | -118.39923 | 103 ft | 7 kts | 26° |
| 2026-04-24 02:53 | 33.94988 | -118.39917 | 105 ft | 1 kts | 4° |
| 2026-04-24 02:53 | 33.95004 | -118.39918 | 107 ft | 7 kts | 356° |
| 2026-04-24 02:54 | 33.95040 | -118.39975 | 109 ft | 11 kts | 270° |
| 2026-04-24 02:54 | 33.95033 | -118.40076 | 109 ft | 20 kts | 265° |
| 2026-04-24 02:54 | 33.94981 | -118.40566 | 110 ft | 97 kts | 263° |
| 2026-04-24 02:54 | 33.94868 | -118.41624 | 111 ft | 155 kts | 262° |
| 2026-04-24 02:55 | 33.94730 | -118.42968 | 630 ft | 165 kts | 263° |
| 2026-04-24 02:55 | 33.94599 | -118.44370 | 1289 ft | 169 kts | 264° |
| 2026-04-24 02:55 | 33.94461 | -118.45783 | 1992 ft | 174 kts | 264° |
| 2026-04-24 02:55 | 33.94378 | -118.46913 | 2276 ft | 191 kts | 270° |
| 2026-04-24 02:56 | 33.94354 | -118.48436 | 2674 ft | 212 kts | 269° |
| 2026-04-24 02:56 | 33.94297 | -118.50314 | 3148 ft | 237 kts | 268° |
| 2026-04-24 02:56 | 33.94183 | -118.52391 | 3742 ft | 257 kts | 265° |
| 2026-04-24 02:56 | 33.94008 | -118.54566 | 4633 ft | 265 kts | 264° |
| 2026-04-24 02:57 | 33.93814 | -118.56797 | 5534 ft | 271 kts | 264° |
| 2026-04-24 02:57 | 33.93614 | -118.59079 | 6439 ft | 277 kts | 264° |
| 2026-04-24 02:57 | 33.93482 | -118.60616 | 7038 ft | 279 kts | 264° |
| 2026-04-24 02:57 | 33.93289 | -118.62943 | 8056 ft | 279 kts | 265° |
| 2026-04-24 02:58 | 33.93100 | -118.65266 | 9059 ft | 280 kts | 265° |
| 2026-04-24 02:58 | 33.92915 | -118.67600 | 10045 ft | 280 kts | 265° |
| 2026-04-24 02:58 | 33.92729 | -118.70008 | 10535 ft | 300 kts | 265° |
| 2026-04-24 02:58 | 33.92530 | -118.72600 | 10819 ft | 323 kts | 265° |
| 2026-04-24 02:59 | 33.92315 | -118.75384 | 11178 ft | 341 kts | 265° |
| 2026-04-24 02:59 | 33.92089 | -118.78253 | 11876 ft | 346 kts | 265° |
| 2026-04-24 02:59 | 33.91857 | -118.81146 | 12671 ft | 349 kts | 265° |
| 2026-04-24 02:59 | 33.91706 | -118.84065 | 13469 ft | 350 kts | 271° |
| 2026-04-24 03:00 | 33.91793 | -118.87006 | 14224 ft | 352 kts | 272° |
| 2026-04-24 03:00 | 33.91887 | -118.89961 | 14915 ft | 354 kts | 272° |
| 2026-04-24 03:00 | 33.91978 | -118.92907 | 15597 ft | 357 kts | 272° |
| 2026-04-24 03:00 | 33.92070 | -118.95902 | 16286 ft | 359 kts | 272° |
| 2026-04-24 03:01 | 33.92201 | -118.98915 | 16949 ft | 362 kts | 276° |
| 2026-04-24 03:01 | 33.92745 | -119.01890 | 17617 ft | 366 kts | 287° |
| 2026-04-24 03:01 | 33.93796 | -119.04695 | 18282 ft | 371 kts | 298° |
| 2026-04-24 03:01 | 33.95168 | -119.07353 | 18858 ft | 375 kts | 299° |
| 2026-04-24 03:02 | 33.96554 | -119.10021 | 19426 ft | 378 kts | 299° |
| 2026-04-24 03:02 | 33.97793 | -119.12414 | 19914 ft | 380 kts | 299° |
| 2026-04-24 03:02 | 33.99193 | -119.15124 | 20441 ft | 384 kts | 299° |
| 2026-04-24 03:02 | 34.00749 | -119.17766 | 20949 ft | 390 kts | 307° |
| 2026-04-24 03:03 | 34.02711 | -119.20060 | 21464 ft | 398 kts | 317° |
| 2026-04-24 03:03 | 34.04965 | -119.22030 | 21958 ft | 402 kts | 321° |
| 2026-04-24 03:03 | 34.07256 | -119.23996 | 22454 ft | 405 kts | 320° |
| 2026-04-24 03:03 | 34.09553 | -119.25977 | 22916 ft | 408 kts | 320° |
| 2026-04-24 03:04 | 34.11873 | -119.27982 | 23383 ft | 411 kts | 320° |
| 2026-04-24 03:04 | 34.14208 | -119.29998 | 23791 ft | 414 kts | 320° |
| 2026-04-24 03:04 | 34.16557 | -119.32024 | 24182 ft | 416 kts | 320° |
| 2026-04-24 03:04 | 34.18927 | -119.34060 | 24578 ft | 419 kts | 320° |
| 2026-04-24 03:05 | 34.21297 | -119.36097 | 24969 ft | 421 kts | 320° |
| 2026-04-24 03:05 | 34.23685 | -119.38156 | 25360 ft | 423 kts | 320° |
| 2026-04-24 03:05 | 34.26085 | -119.40232 | 25742 ft | 424 kts | 320° |
| 2026-04-24 03:05 | 34.28495 | -119.42320 | 26127 ft | 426 kts | 320° |
| 2026-04-24 03:06 | 34.30899 | -119.44403 | 26497 ft | 428 kts | 320° |
| 2026-04-24 03:06 | 34.33391 | -119.46549 | 26864 ft | 430 kts | 320° |
| 2026-04-24 03:06 | 34.35837 | -119.48657 | 27223 ft | 432 kts | 320° |
| 2026-04-24 03:07 | 34.38288 | -119.50782 | 27562 ft | 434 kts | 320° |
| 2026-04-24 03:07 | 34.40746 | -119.52921 | 27907 ft | 436 kts | 320° |
| 2026-04-24 03:07 | 34.43195 | -119.55102 | 28235 ft | 437 kts | 319° |
| 2026-04-24 03:07 | 34.45609 | -119.57341 | 28576 ft | 438 kts | 318° |
| 2026-04-24 03:08 | 34.47979 | -119.59597 | 29007 ft | 438 kts | 317° |
| 2026-04-24 03:08 | 34.52725 | -119.64161 | 29904 ft | 435 kts | 317° |
| 2026-04-24 03:09 | 34.57475 | -119.68680 | 29977 ft | 433 kts | 317° |
| 2026-04-24 03:09 | 34.62232 | -119.73178 | 29991 ft | 434 kts | 317° |
| 2026-04-24 03:10 | 34.66983 | -119.77675 | 29990 ft | 433 kts | 317° |
| 2026-04-24 03:10 | 34.71735 | -119.82179 | 30021 ft | 434 kts | 317° |
| 2026-04-24 03:11 | 34.76494 | -119.86694 | 30021 ft | 433 kts | 318° |
| 2026-04-24 03:11 | 34.81240 | -119.91203 | 30015 ft | 433 kts | 317° |
| 2026-04-24 03:12 | 34.85982 | -119.95721 | 30015 ft | 433 kts | 317° |
| 2026-04-24 03:12 | 34.90730 | -120.00256 | 30017 ft | 433 kts | 317° |
| 2026-04-24 03:13 | 34.95462 | -120.04773 | 30015 ft | 433 kts | 317° |
| 2026-04-24 03:13 | 35.00202 | -120.09302 | 30014 ft | 433 kts | 317° |
| 2026-04-24 03:14 | 35.04939 | -120.13847 | 30018 ft | 433 kts | 317° |
| 2026-04-24 03:14 | 35.08075 | -120.16860 | 30019 ft | 433 kts | 317° |
| 2026-04-24 03:15 | 35.12358 | -120.21073 | 30018 ft | 433 kts | 317° |
| 2026-04-24 03:15 | 35.17109 | -120.25604 | 30017 ft | 434 kts | 318° |
| 2026-04-24 03:16 | 35.21935 | -120.30052 | 30028 ft | 434 kts | 319° |
| 2026-04-24 03:16 | 35.26759 | -120.34404 | 30029 ft | 434 kts | 319° |
| 2026-04-24 03:17 | 35.31513 | -120.38722 | 30033 ft | 434 kts | 319° |
| 2026-04-24 03:17 | 35.36318 | -120.43126 | 30033 ft | 434 kts | 319° |
| 2026-04-24 03:18 | 35.41184 | -120.47604 | 30037 ft | 435 kts | 319° |
| 2026-04-24 03:18 | 35.46019 | -120.52060 | 30052 ft | 435 kts | 319° |
| 2026-04-24 03:19 | 35.50820 | -120.56484 | 30054 ft | 435 kts | 319° |
| 2026-04-24 03:19 | 35.55742 | -120.60823 | 30062 ft | 437 kts | 322° |
| 2026-04-24 03:20 | 35.60904 | -120.64813 | 30072 ft | 439 kts | 324° |
| 2026-04-24 03:20 | 35.66101 | -120.68728 | 30072 ft | 438 kts | 324° |
| 2026-04-24 03:21 | 35.71261 | -120.72725 | 30075 ft | 438 kts | 323° |
| 2026-04-24 03:21 | 35.76381 | -120.76781 | 30077 ft | 438 kts | 323° |
| 2026-04-24 03:22 | 35.81501 | -120.80839 | 30081 ft | 438 kts | 323° |
| 2026-04-24 03:22 | 35.86627 | -120.84884 | 30070 ft | 438 kts | 323° |
| 2026-04-24 03:23 | 35.91748 | -120.88926 | 30069 ft | 437 kts | 323° |
| 2026-04-24 03:23 | 35.96865 | -120.92981 | 30073 ft | 437 kts | 323° |
| 2026-04-24 03:24 | 36.01956 | -120.97074 | 30076 ft | 435 kts | 321° |
| 2026-04-24 03:24 | 36.06767 | -121.01519 | 30084 ft | 433 kts | 317° |
| 2026-04-24 03:25 | 36.11464 | -121.06165 | 30075 ft | 432 kts | 317° |
| 2026-04-24 03:25 | 36.16191 | -121.10775 | 30094 ft | 432 kts | 318° |
| 2026-04-24 03:26 | 36.20951 | -121.15317 | 30072 ft | 432 kts | 318° |
| 2026-04-24 03:26 | 36.25713 | -121.19832 | 29892 ft | 425 kts | 318° |
| 2026-04-24 03:26 | 36.28022 | -121.22018 | 29537 ft | 412 kts | 318° |
| 2026-04-24 03:27 | 36.30278 | -121.24166 | 28795 ft | 406 kts | 318° |
| 2026-04-24 03:27 | 36.32499 | -121.26296 | 27968 ft | 401 kts | 318° |
| 2026-04-24 03:27 | 36.34695 | -121.28406 | 27166 ft | 397 kts | 318° |
| 2026-04-24 03:27 | 36.36868 | -121.30494 | 26305 ft | 392 kts | 318° |
| 2026-04-24 03:28 | 36.39011 | -121.32559 | 25385 ft | 388 kts | 319° |
| 2026-04-24 03:28 | 36.41129 | -121.34608 | 24511 ft | 385 kts | 319° |
| 2026-04-24 03:28 | 36.43232 | -121.36645 | 23672 ft | 381 kts | 319° |
| 2026-04-24 03:28 | 36.45247 | -121.38596 | 22766 ft | 379 kts | 319° |
| 2026-04-24 03:29 | 36.47352 | -121.40625 | 21873 ft | 376 kts | 320° |
| 2026-04-24 03:29 | 36.49493 | -121.42457 | 21019 ft | 375 kts | 327° |
| 2026-04-24 03:29 | 36.51834 | -121.43882 | 20179 ft | 374 kts | 336° |
| 2026-04-24 03:29 | 36.54288 | -121.44940 | 19358 ft | 372 kts | 340° |
| 2026-04-24 03:30 | 36.56736 | -121.45963 | 18562 ft | 369 kts | 340° |
| 2026-04-24 03:30 | 36.59157 | -121.46978 | 17715 ft | 366 kts | 340° |
| 2026-04-24 03:30 | 36.61561 | -121.47991 | 16894 ft | 362 kts | 340° |
| 2026-04-24 03:30 | 36.63929 | -121.48991 | 16111 ft | 357 kts | 340° |
| 2026-04-24 03:31 | 36.66273 | -121.49983 | 15454 ft | 356 kts | 341° |
| 2026-04-24 03:31 | 36.68602 | -121.50973 | 14959 ft | 350 kts | 341° |
| 2026-04-24 03:31 | 36.70896 | -121.51948 | 14225 ft | 346 kts | 341° |
| 2026-04-24 03:31 | 36.73159 | -121.52910 | 13467 ft | 342 kts | 341° |
| 2026-04-24 03:32 | 36.75352 | -121.53842 | 12864 ft | 339 kts | 341° |
| 2026-04-24 03:32 | 36.77629 | -121.54810 | 12310 ft | 338 kts | 341° |
| 2026-04-24 03:32 | 36.79813 | -121.55740 | 11821 ft | 335 kts | 341° |
| 2026-04-24 03:32 | 36.82012 | -121.56675 | 11328 ft | 333 kts | 341° |
| 2026-04-24 03:33 | 36.84197 | -121.57603 | 10871 ft | 330 kts | 341° |
| 2026-04-24 03:33 | 36.86375 | -121.58523 | 10409 ft | 324 kts | 341° |
| 2026-04-24 03:33 | 36.88446 | -121.59399 | 10289 ft | 306 kts | 341° |
| 2026-04-24 03:33 | 36.90414 | -121.60238 | 10087 ft | 293 kts | 341° |
| 2026-04-24 03:34 | 36.92314 | -121.61051 | 9841 ft | 287 kts | 340° |
| 2026-04-24 03:34 | 36.94205 | -121.61858 | 9666 ft | 287 kts | 341° |
| 2026-04-24 03:34 | 36.96094 | -121.62660 | 9300 ft | 286 kts | 341° |
| 2026-04-24 03:34 | 36.97977 | -121.63457 | 8913 ft | 285 kts | 341° |
| 2026-04-24 03:35 | 36.99850 | -121.64251 | 8530 ft | 284 kts | 341° |
| 2026-04-24 03:35 | 37.01714 | -121.65044 | 8142 ft | 282 kts | 341° |
| 2026-04-24 03:35 | 37.03569 | -121.65832 | 7756 ft | 281 kts | 341° |
| 2026-04-24 03:35 | 37.05416 | -121.66615 | 7373 ft | 280 kts | 341° |
| 2026-04-24 03:36 | 37.07261 | -121.67396 | 6890 ft | 282 kts | 341° |
| 2026-04-24 03:36 | 37.08735 | -121.68024 | 6510 ft | 284 kts | 341° |
| 2026-04-24 03:36 | 37.10590 | -121.68817 | 6127 ft | 280 kts | 341° |
| 2026-04-24 03:36 | 37.12424 | -121.69599 | 5826 ft | 273 kts | 341° |
| 2026-04-24 03:37 | 37.14159 | -121.70339 | 5465 ft | 258 kts | 341° |
| 2026-04-24 03:37 | 37.15794 | -121.71109 | 5144 ft | 243 kts | 335° |
| 2026-04-24 03:37 | 37.17189 | -121.72188 | 4839 ft | 230 kts | 322° |
| 2026-04-24 03:37 | 37.18388 | -121.73442 | 4537 ft | 219 kts | 318° |
| 2026-04-24 03:38 | 37.19510 | -121.74672 | 4252 ft | 209 kts | 318° |
| 2026-04-24 03:38 | 37.20572 | -121.75834 | 3982 ft | 197 kts | 318° |
| 2026-04-24 03:38 | 37.21576 | -121.76929 | 3720 ft | 186 kts | 319° |
| 2026-04-24 03:38 | 37.22527 | -121.77966 | 3481 ft | 176 kts | 318° |
| 2026-04-24 03:39 | 37.23414 | -121.78933 | 3254 ft | 165 kts | 318° |
| 2026-04-24 03:39 | 37.24263 | -121.79859 | 3036 ft | 155 kts | 319° |
| 2026-04-24 03:39 | 37.25051 | -121.80719 | 2837 ft | 146 kts | 319° |
| 2026-04-24 03:39 | 37.25802 | -121.81539 | 2655 ft | 137 kts | 319° |
| 2026-04-24 03:40 | 37.26506 | -121.82307 | 2463 ft | 132 kts | 319° |
| 2026-04-24 03:40 | 37.27169 | -121.83031 | 2297 ft | 130 kts | 319° |
| 2026-04-24 03:40 | 37.27849 | -121.83774 | 2123 ft | 129 kts | 318° |
| 2026-04-24 03:40 | 37.28519 | -121.84506 | 1944 ft | 127 kts | 319° |
| 2026-04-24 03:41 | 37.29180 | -121.85229 | 1764 ft | 127 kts | 320° |
| 2026-04-24 03:41 | 37.29797 | -121.85903 | 1616 ft | 127 kts | 319° |
| 2026-04-24 03:41 | 37.30456 | -121.86623 | 1451 ft | 127 kts | 319° |
| 2026-04-24 03:41 | 37.31128 | -121.87358 | 1267 ft | 126 kts | 320° |
| 2026-04-24 03:42 | 37.31783 | -121.88074 | 1100 ft | 124 kts | 320° |
| 2026-04-24 03:42 | 37.32429 | -121.88773 | 910 ft | 125 kts | 320° |
| 2026-04-24 03:42 | 37.33077 | -121.89506 | 742 ft | 123 kts | 320° |
| 2026-04-24 03:42 | 37.33710 | -121.90199 | 592 ft | 121 kts | 321° |
| 2026-04-24 03:43 | 37.34343 | -121.90902 | 413 ft | 121 kts | 323° |
| 2026-04-24 03:43 | 37.34971 | -121.91589 | 255 ft | 119 kts | 324° |
| 2026-04-24 03:43 | 37.35597 | -121.92260 | 106 ft | 117 kts | 323° |
| 2026-04-24 03:43 | 37.36182 | -121.92889 | 63 ft | 101 kts | 321° |
| 2026-04-24 03:44 | 37.36591 | -121.93324 | 58 ft | 52 kts | 319° |
| 2026-04-24 03:44 | 37.36807 | -121.93552 | 59 ft | 30 kts | 326° |
| 2026-04-24 03:44 | 37.36941 | -121.93532 | 62 ft | 0 kts | 45° |
| 2026-04-24 03:44 | 37.36942 | -121.93530 | 63 ft | 1 kts | 45° |
| 2026-04-24 03:45 | 37.36959 | -121.93509 | 65 ft | 6 kts | 47° |
| 2026-04-24 03:45 | 37.37002 | -121.93448 | 65 ft | 11 kts | 48° |